sensor_id;sensor_type;location;lat;lon;timestamp;P1;durP1;ratioP1;P2;durP2;ratioP2
15608;SDS011;64278;45.642;13.756;2023-03-14T00:01:29;5.85;;;3.85;;
15608;SDS011;64278;45.642;13.756;2023-03-14T00:03:55;5.60;;;4.50;;
15608;SDS011;64278;45.642;13.756;2023-03-14T00:06:20;4.53;;;3.95;;
15608;SDS011;64278;45.642;13.756;2023-03-14T00:08:47;4.38;;;3.70;;
15608;SDS011;64278;45.642;13.756;2023-03-14T00:11:14;6.03;;;3.92;;
15608;SDS011;64278;45.642;13.756;2023-03-14T00:13:41;4.43;;;3.92;;
15608;SDS011;64278;45.642;13.756;2023-03-14T00:16:08;4.95;;;4.22;;
15608;SDS011;64278;45.642;13.756;2023-03-14T00:18:35;4.60;;;3.38;;
15608;SDS011;64278;45.642;13.756;2023-03-14T00:21:02;4.13;;;3.72;;
15608;SDS011;64278;45.642;13.756;2023-03-14T00:23:30;5.28;;;3.92;;
15608;SDS011;64278;45.642;13.756;2023-03-14T00:26:04;7.10;;;3.47;;
15608;SDS011;64278;45.642;13.756;2023-03-14T00:28:32;3.92;;;3.63;;
15608;SDS011;64278;45.642;13.756;2023-03-14T00:30:58;5.95;;;3.75;;
15608;SDS011;64278;45.642;13.756;2023-03-14T00:33:24;3.70;;;3.15;;
15608;SDS011;64278;45.642;13.756;2023-03-14T00:35:53;4.32;;;3.60;;
15608;SDS011;64278;45.642;13.756;2023-03-14T00:38:20;4.25;;;3.70;;
15608;SDS011;64278;45.642;13.756;2023-03-14T00:40:46;7.68;;;3.80;;
15608;SDS011;64278;45.642;13.756;2023-03-14T00:43:11;5.07;;;3.47;;
15608;SDS011;64278;45.642;13.756;2023-03-14T00:45:37;3.50;;;3.13;;
15608;SDS011;64278;45.642;13.756;2023-03-14T00:48:03;3.78;;;3.28;;
15608;SDS011;64278;45.642;13.756;2023-03-14T00:50:28;3.72;;;3.38;;
15608;SDS011;64278;45.642;13.756;2023-03-14T00:52:54;5.45;;;3.42;;
15608;SDS011;64278;45.642;13.756;2023-03-14T00:55:20;3.38;;;3.08;;
15608;SDS011;64278;45.642;13.756;2023-03-14T00:57:45;3.42;;;3.05;;
15608;SDS011;64278;45.642;13.756;2023-03-14T01:00:11;4.28;;;3.10;;
15608;SDS011;64278;45.642;13.756;2023-03-14T01:02:37;3.72;;;3.40;;
15608;SDS011;64278;45.642;13.756;2023-03-14T01:05:03;4.32;;;3.40;;
15608;SDS011;64278;45.642;13.756;2023-03-14T01:07:29;3.72;;;2.83;;
15608;SDS011;64278;45.642;13.756;2023-03-14T01:09:55;5.43;;;3.50;;
15608;SDS011;64278;45.642;13.756;2023-03-14T01:12:21;3.50;;;2.95;;
15608;SDS011;64278;45.642;13.756;2023-03-14T01:14:46;3.65;;;3.30;;
15608;SDS011;64278;45.642;13.756;2023-03-14T01:17:12;3.72;;;3.40;;
15608;SDS011;64278;45.642;13.756;2023-03-14T01:19:37;3.88;;;3.22;;
15608;SDS011;64278;45.642;13.756;2023-03-14T01:22:03;3.28;;;2.90;;
15608;SDS011;64278;45.642;13.756;2023-03-14T01:24:29;3.45;;;2.85;;
15608;SDS011;64278;45.642;13.756;2023-03-14T01:26:54;5.50;;;3.03;;
15608;SDS011;64278;45.642;13.756;2023-03-14T01:29:20;3.17;;;2.85;;
15608;SDS011;64278;45.642;13.756;2023-03-14T01:31:46;2.80;;;2.55;;
15608;SDS011;64278;45.642;13.756;2023-03-14T01:34:11;6.57;;;3.08;;
15608;SDS011;64278;45.642;13.756;2023-03-14T01:36:37;3.28;;;2.42;;
15608;SDS011;64278;45.642;13.756;2023-03-14T01:39:03;3.00;;;2.70;;
15608;SDS011;64278;45.642;13.756;2023-03-14T01:41:31;3.53;;;3.00;;
15608;SDS011;64278;45.642;13.756;2023-03-14T01:43:56;3.22;;;2.80;;
15608;SDS011;64278;45.642;13.756;2023-03-14T01:48:55;3.10;;;2.67;;
15608;SDS011;64278;45.642;13.756;2023-03-14T01:52:10;2.42;;;2.22;;
15608;SDS011;64278;45.642;13.756;2023-03-14T01:54:16;2.63;;;2.42;;
15608;SDS011;64278;45.642;13.756;2023-03-14T01:56:53;2.67;;;2.47;;
15608;SDS011;64278;45.642;13.756;2023-03-14T01:59:33;2.70;;;2.50;;
15608;SDS011;64278;45.642;13.756;2023-03-14T02:02:00;2.67;;;2.45;;
15608;SDS011;64278;45.642;13.756;2023-03-14T02:04:31;4.45;;;2.92;;
15608;SDS011;64278;45.642;13.756;2023-03-14T02:07:16;3.22;;;2.35;;
15608;SDS011;64278;45.642;13.756;2023-03-14T02:10:22;3.40;;;2.30;;
15608;SDS011;64278;45.642;13.756;2023-03-14T02:12:50;3.65;;;2.70;;
15608;SDS011;64278;45.642;13.756;2023-03-14T02:15:20;3.75;;;2.65;;
15608;SDS011;64278;45.642;13.756;2023-03-14T02:17:45;2.28;;;2.00;;
15608;SDS011;64278;45.642;13.756;2023-03-14T02:23:03;3.22;;;2.60;;
15608;SDS011;64278;45.642;13.756;2023-03-14T02:25:32;2.53;;;2.10;;
15608;SDS011;64278;45.642;13.756;2023-03-14T02:28:06;2.97;;;2.78;;
15608;SDS011;64278;45.642;13.756;2023-03-14T02:30:32;3.63;;;2.42;;
15608;SDS011;64278;45.642;13.756;2023-03-14T02:33:00;2.50;;;2.25;;
15608;SDS011;64278;45.642;13.756;2023-03-14T02:35:44;2.22;;;2.03;;
15608;SDS011;64278;45.642;13.756;2023-03-14T02:41:06;2.22;;;2.05;;
15608;SDS011;64278;45.642;13.756;2023-03-14T02:43:32;2.53;;;2.33;;
15608;SDS011;64278;45.642;13.756;2023-03-14T02:45:58;2.45;;;2.00;;
15608;SDS011;64278;45.642;13.756;2023-03-14T02:48:29;3.00;;;2.80;;
15608;SDS011;64278;45.642;13.756;2023-03-14T02:50:59;2.40;;;1.80;;
15608;SDS011;64278;45.642;13.756;2023-03-14T02:53:27;2.42;;;2.22;;
15608;SDS011;64278;45.642;13.756;2023-03-14T02:55:55;3.33;;;2.15;;
15608;SDS011;64278;45.642;13.756;2023-03-14T02:58:21;2.28;;;1.90;;
15608;SDS011;64278;45.642;13.756;2023-03-14T03:00:47;1.80;;;1.70;;
15608;SDS011;64278;45.642;13.756;2023-03-14T03:03:13;3.05;;;2.08;;
15608;SDS011;64278;45.642;13.756;2023-03-14T03:05:38;2.53;;;2.33;;
15608;SDS011;64278;45.642;13.756;2023-03-14T03:08:04;2.45;;;2.15;;
15608;SDS011;64278;45.642;13.756;2023-03-14T03:10:30;2.40;;;1.70;;
15608;SDS011;64278;45.642;13.756;2023-03-14T03:12:56;2.97;;;2.00;;
15608;SDS011;64278;45.642;13.756;2023-03-14T03:15:22;2.53;;;1.67;;
15608;SDS011;64278;45.642;13.756;2023-03-14T03:17:47;2.47;;;2.00;;
15608;SDS011;64278;45.642;13.756;2023-03-14T03:20:13;2.10;;;1.90;;
15608;SDS011;64278;45.642;13.756;2023-03-14T03:22:39;2.58;;;1.83;;
15608;SDS011;64278;45.642;13.756;2023-03-14T03:25:05;2.65;;;1.83;;
15608;SDS011;64278;45.642;13.756;2023-03-14T03:27:33;1.67;;;1.58;;
15608;SDS011;64278;45.642;13.756;2023-03-14T03:29:59;2.15;;;1.95;;
15608;SDS011;64278;45.642;13.756;2023-03-14T03:32:26;2.78;;;1.48;;
15608;SDS011;64278;45.642;13.756;2023-03-14T03:34:52;1.58;;;1.48;;
15608;SDS011;64278;45.642;13.756;2023-03-14T03:37:17;2.10;;;1.77;;
15608;SDS011;64278;45.642;13.756;2023-03-14T03:39:43;2.83;;;1.88;;
15608;SDS011;64278;45.642;13.756;2023-03-14T03:42:09;3.42;;;2.13;;
15608;SDS011;64278;45.642;13.756;2023-03-14T03:44:35;1.67;;;1.50;;
15608;SDS011;64278;45.642;13.756;2023-03-14T03:47:01;1.85;;;1.70;;
15608;SDS011;64278;45.642;13.756;2023-03-14T03:49:30;3.22;;;2.10;;
15608;SDS011;64278;45.642;13.756;2023-03-14T03:51:56;2.22;;;2.03;;
15608;SDS011;64278;45.642;13.756;2023-03-14T03:54:22;2.20;;;2.00;;
15608;SDS011;64278;45.642;13.756;2023-03-14T03:56:48;1.92;;;1.60;;
15608;SDS011;64278;45.642;13.756;2023-03-14T03:59:14;2.05;;;1.48;;
15608;SDS011;64278;45.642;13.756;2023-03-14T04:01:39;2.38;;;1.70;;
15608;SDS011;64278;45.642;13.756;2023-03-14T04:04:05;3.47;;;1.95;;
15608;SDS011;64278;45.642;13.756;2023-03-14T04:06:31;1.80;;;1.70;;
15608;SDS011;64278;45.642;13.756;2023-03-14T04:08:57;2.03;;;1.45;;
15608;SDS011;64278;45.642;13.756;2023-03-14T04:11:23;2.47;;;2.03;;
15608;SDS011;64278;45.642;13.756;2023-03-14T04:13:48;1.55;;;1.45;;
15608;SDS011;64278;45.642;13.756;2023-03-14T04:16:16;2.00;;;1.60;;
15608;SDS011;64278;45.642;13.756;2023-03-14T04:18:43;2.03;;;1.40;;
15608;SDS011;64278;45.642;13.756;2023-03-14T04:21:09;2.22;;;1.77;;
15608;SDS011;64278;45.642;13.756;2023-03-14T04:23:34;2.13;;;1.52;;
15608;SDS011;64278;45.642;13.756;2023-03-14T04:26:00;2.42;;;2.15;;
15608;SDS011;64278;45.642;13.756;2023-03-14T04:28:26;1.83;;;1.67;;
15608;SDS011;64278;45.642;13.756;2023-03-14T04:30:52;1.83;;;1.70;;
15608;SDS011;64278;45.642;13.756;2023-03-14T04:33:17;3.90;;;1.63;;
15608;SDS011;64278;45.642;13.756;2023-03-14T04:35:43;1.70;;;1.60;;
15608;SDS011;64278;45.642;13.756;2023-03-14T04:38:10;2.20;;;1.67;;
15608;SDS011;64278;45.642;13.756;2023-03-14T04:40:36;2.67;;;1.67;;
15608;SDS011;64278;45.642;13.756;2023-03-14T04:43:03;2.17;;;1.60;;
15608;SDS011;64278;45.642;13.756;2023-03-14T04:45:28;1.40;;;1.30;;
15608;SDS011;64278;45.642;13.756;2023-03-14T04:47:54;1.70;;;1.58;;
15608;SDS011;64278;45.642;13.756;2023-03-14T04:50:20;1.80;;;1.70;;
15608;SDS011;64278;45.642;13.756;2023-03-14T04:52:45;2.28;;;1.45;;
15608;SDS011;64278;45.642;13.756;2023-03-14T04:55:11;1.73;;;1.63;;
15608;SDS011;64278;45.642;13.756;2023-03-14T04:57:37;1.90;;;1.50;;
15608;SDS011;64278;45.642;13.756;2023-03-14T05:00:03;1.70;;;1.42;;
15608;SDS011;64278;45.642;13.756;2023-03-14T05:02:32;1.75;;;1.30;;
15608;SDS011;64278;45.642;13.756;2023-03-14T05:04:59;2.15;;;1.77;;
15608;SDS011;64278;45.642;13.756;2023-03-14T05:07:24;1.73;;;1.30;;
15608;SDS011;64278;45.642;13.756;2023-03-14T05:09:50;2.22;;;1.40;;
15608;SDS011;64278;45.642;13.756;2023-03-14T05:12:17;1.63;;;1.25;;
15608;SDS011;64278;45.642;13.756;2023-03-14T05:14:44;2.35;;;1.80;;
15608;SDS011;64278;45.642;13.756;2023-03-14T05:17:09;2.88;;;1.60;;
15608;SDS011;64278;45.642;13.756;2023-03-14T05:19:36;1.92;;;1.55;;
15608;SDS011;64278;45.642;13.756;2023-03-14T05:22:02;1.88;;;1.45;;
15608;SDS011;64278;45.642;13.756;2023-03-14T05:24:28;1.63;;;1.42;;
15608;SDS011;64278;45.642;13.756;2023-03-14T05:26:53;2.28;;;1.40;;
15608;SDS011;64278;45.642;13.756;2023-03-14T05:29:19;1.98;;;1.30;;
15608;SDS011;64278;45.642;13.756;2023-03-14T05:31:45;1.35;;;1.25;;
15608;SDS011;64278;45.642;13.756;2023-03-14T05:34:10;1.50;;;1.27;;
15608;SDS011;64278;45.642;13.756;2023-03-14T05:36:36;1.65;;;1.48;;
15608;SDS011;64278;45.642;13.756;2023-03-14T05:39:03;2.45;;;1.90;;
15608;SDS011;64278;45.642;13.756;2023-03-14T05:41:28;2.35;;;1.50;;
15608;SDS011;64278;45.642;13.756;2023-03-14T05:43:54;2.97;;;1.73;;
15608;SDS011;64278;45.642;13.756;2023-03-14T05:46:19;2.90;;;1.92;;
15608;SDS011;64278;45.642;13.756;2023-03-14T05:48:45;1.70;;;1.52;;
15608;SDS011;64278;45.642;13.756;2023-03-14T05:51:11;1.42;;;1.33;;
15608;SDS011;64278;45.642;13.756;2023-03-14T05:53:36;1.60;;;1.38;;
15608;SDS011;64278;45.642;13.756;2023-03-14T05:56:02;1.65;;;1.55;;
15608;SDS011;64278;45.642;13.756;2023-03-14T05:58:28;1.63;;;1.13;;
15608;SDS011;64278;45.642;13.756;2023-03-14T06:00:53;1.40;;;1.30;;
15608;SDS011;64278;45.642;13.756;2023-03-14T06:03:19;1.67;;;1.58;;
15608;SDS011;64278;45.642;13.756;2023-03-14T06:05:45;1.23;;;1.15;;
15608;SDS011;64278;45.642;13.756;2023-03-14T06:08:10;1.83;;;1.33;;
15608;SDS011;64278;45.642;13.756;2023-03-14T06:10:36;1.35;;;1.25;;
15608;SDS011;64278;45.642;13.756;2023-03-14T06:13:02;1.90;;;1.50;;
15608;SDS011;64278;45.642;13.756;2023-03-14T06:15:28;1.45;;;1.35;;
15608;SDS011;64278;45.642;13.756;2023-03-14T06:17:54;1.35;;;1.17;;
15608;SDS011;64278;45.642;13.756;2023-03-14T06:20:20;1.98;;;1.35;;
15608;SDS011;64278;45.642;13.756;2023-03-14T06:22:46;2.08;;;1.50;;
15608;SDS011;64278;45.642;13.756;2023-03-14T06:25:12;2.33;;;1.08;;
15608;SDS011;64278;45.642;13.756;2023-03-14T06:27:38;1.30;;;1.20;;
15608;SDS011;64278;45.642;13.756;2023-03-14T06:30:04;2.58;;;1.58;;
15608;SDS011;64278;45.642;13.756;2023-03-14T06:32:30;2.08;;;1.50;;
15608;SDS011;64278;45.642;13.756;2023-03-14T06:34:55;1.23;;;1.10;;
15608;SDS011;64278;45.642;13.756;2023-03-14T06:37:22;2.17;;;1.65;;
15608;SDS011;64278;45.642;13.756;2023-03-14T06:39:48;2.05;;;1.40;;
15608;SDS011;64278;45.642;13.756;2023-03-14T06:42:14;1.60;;;1.50;;
15608;SDS011;64278;45.642;13.756;2023-03-14T06:44:40;1.17;;;1.08;;
15608;SDS011;64278;45.642;13.756;2023-03-14T06:47:06;1.77;;;1.50;;
15608;SDS011;64278;45.642;13.756;2023-03-14T06:49:31;1.33;;;1.23;;
15608;SDS011;64278;45.642;13.756;2023-03-14T06:51:57;2.55;;;1.38;;
15608;SDS011;64278;45.642;13.756;2023-03-14T06:54:23;1.33;;;1.23;;
15608;SDS011;64278;45.642;13.756;2023-03-14T06:56:48;2.42;;;1.17;;
15608;SDS011;64278;45.642;13.756;2023-03-14T06:59:14;1.25;;;1.10;;
15608;SDS011;64278;45.642;13.756;2023-03-14T07:01:40;1.63;;;1.52;;
15608;SDS011;64278;45.642;13.756;2023-03-14T07:04:05;1.63;;;1.40;;
15608;SDS011;64278;45.642;13.756;2023-03-14T07:06:31;1.20;;;1.10;;
15608;SDS011;64278;45.642;13.756;2023-03-14T07:08:58;1.95;;;1.20;;
15608;SDS011;64278;45.642;13.756;2023-03-14T07:11:24;1.58;;;1.48;;
15608;SDS011;64278;45.642;13.756;2023-03-14T07:13:49;1.67;;;1.10;;
15608;SDS011;64278;45.642;13.756;2023-03-14T07:16:15;2.88;;;1.30;;
15608;SDS011;64278;45.642;13.756;2023-03-14T07:18:41;2.45;;;1.50;;
15608;SDS011;64278;45.642;13.756;2023-03-14T07:21:07;2.40;;;1.25;;
15608;SDS011;64278;45.642;13.756;2023-03-14T07:23:37;2.08;;;1.50;;
15608;SDS011;64278;45.642;13.756;2023-03-14T07:26:03;2.03;;;1.33;;
15608;SDS011;64278;45.642;13.756;2023-03-14T07:28:29;1.40;;;1.30;;
15608;SDS011;64278;45.642;13.756;2023-03-14T07:30:55;2.47;;;1.10;;
15608;SDS011;64278;45.642;13.756;2023-03-14T07:33:21;4.07;;;1.40;;
15608;SDS011;64278;45.642;13.756;2023-03-14T07:35:48;1.70;;;1.25;;
15608;SDS011;64278;45.642;13.756;2023-03-14T07:38:14;1.75;;;1.52;;
15608;SDS011;64278;45.642;13.756;2023-03-14T07:40:40;2.05;;;1.30;;
15608;SDS011;64278;45.642;13.756;2023-03-14T07:43:06;2.50;;;1.25;;
15608;SDS011;64278;45.642;13.756;2023-03-14T07:45:32;1.77;;;1.50;;
15608;SDS011;64278;45.642;13.756;2023-03-14T07:47:58;1.70;;;1.50;;
15608;SDS011;64278;45.642;13.756;2023-03-14T07:50:24;1.90;;;1.25;;
15608;SDS011;64278;45.642;13.756;2023-03-14T07:52:50;1.08;;;0.93;;
15608;SDS011;64278;45.642;13.756;2023-03-14T07:55:16;2.25;;;1.20;;
15608;SDS011;64278;45.642;13.756;2023-03-14T07:57:42;4.15;;;2.20;;
15608;SDS011;64278;45.642;13.756;2023-03-14T08:00:08;3.50;;;2.28;;
15608;SDS011;64278;45.642;13.756;2023-03-14T08:02:34;2.58;;;1.58;;
15608;SDS011;64278;45.642;13.756;2023-03-14T08:05:01;3.08;;;1.60;;
15608;SDS011;64278;45.642;13.756;2023-03-14T08:07:27;4.65;;;1.70;;
15608;SDS011;64278;45.642;13.756;2023-03-14T08:09:53;2.53;;;1.40;;
15608;SDS011;64278;45.642;13.756;2023-03-14T08:12:18;4.40;;;1.85;;
15608;SDS011;64278;45.642;13.756;2023-03-14T08:14:44;3.85;;;1.45;;
15608;SDS011;64278;45.642;13.756;2023-03-14T08:17:10;3.67;;;1.92;;
15608;SDS011;64278;45.642;13.756;2023-03-14T08:19:35;5.00;;;2.15;;
15608;SDS011;64278;45.642;13.756;2023-03-14T08:22:01;2.95;;;1.60;;
15608;SDS011;64278;45.642;13.756;2023-03-14T08:24:27;5.40;;;2.17;;
15608;SDS011;64278;45.642;13.756;2023-03-14T08:26:53;2.55;;;1.80;;
15608;SDS011;64278;45.642;13.756;2023-03-14T08:29:18;2.72;;;1.70;;
15608;SDS011;64278;45.642;13.756;2023-03-14T08:31:44;3.92;;;2.13;;
15608;SDS011;64278;45.642;13.756;2023-03-14T08:34:10;3.97;;;2.05;;
15608;SDS011;64278;45.642;13.756;2023-03-14T08:36:35;4.53;;;2.33;;
15608;SDS011;64278;45.642;13.756;2023-03-14T08:39:01;2.90;;;2.00;;
15608;SDS011;64278;45.642;13.756;2023-03-14T08:41:28;4.55;;;2.50;;
15608;SDS011;64278;45.642;13.756;2023-03-14T08:43:54;4.80;;;2.17;;
15608;SDS011;64278;45.642;13.756;2023-03-14T08:46:20;4.50;;;2.65;;
15608;SDS011;64278;45.642;13.756;2023-03-14T08:48:45;5.60;;;2.70;;
15608;SDS011;64278;45.642;13.756;2023-03-14T08:51:12;4.55;;;2.85;;
15608;SDS011;64278;45.642;13.756;2023-03-14T08:53:42;9.10;;;3.60;;
15608;SDS011;64278;45.642;13.756;2023-03-14T08:56:08;8.57;;;3.50;;
15608;SDS011;64278;45.642;13.756;2023-03-14T08:58:35;6.63;;;3.47;;
15608;SDS011;64278;45.642;13.756;2023-03-14T09:01:03;7.10;;;3.47;;
15608;SDS011;64278;45.642;13.756;2023-03-14T09:03:33;12.45;;;4.07;;
15608;SDS011;64278;45.642;13.756;2023-03-14T09:06:03;11.23;;;3.85;;
15608;SDS011;64278;45.642;13.756;2023-03-14T09:08:33;9.70;;;2.60;;
15608;SDS011;64278;45.642;13.756;2023-03-14T09:10:59;7.05;;;3.30;;
15608;SDS011;64278;45.642;13.756;2023-03-14T09:13:24;8.05;;;2.97;;
15608;SDS011;64278;45.642;13.756;2023-03-14T09:15:55;5.22;;;2.85;;
15608;SDS011;64278;45.642;13.756;2023-03-14T09:18:21;5.15;;;2.92;;
15608;SDS011;64278;45.642;13.756;2023-03-14T09:20:47;8.60;;;3.40;;
15608;SDS011;64278;45.642;13.756;2023-03-14T09:23:14;6.28;;;2.50;;
15608;SDS011;64278;45.642;13.756;2023-03-14T09:25:39;5.90;;;2.85;;
15608;SDS011;64278;45.642;13.756;2023-03-14T09:28:05;4.07;;;2.33;;
15608;SDS011;64278;45.642;13.756;2023-03-14T09:30:31;4.22;;;2.50;;
15608;SDS011;64278;45.642;13.756;2023-03-14T09:32:56;4.13;;;2.45;;
15608;SDS011;64278;45.642;13.756;2023-03-14T09:35:23;6.15;;;2.38;;
15608;SDS011;64278;45.642;13.756;2023-03-14T09:37:48;5.85;;;2.88;;
15608;SDS011;64278;45.642;13.756;2023-03-14T09:40:18;3.97;;;2.75;;
15608;SDS011;64278;45.642;13.756;2023-03-14T09:42:45;3.80;;;2.40;;
15608;SDS011;64278;45.642;13.756;2023-03-14T09:45:26;3.75;;;2.10;;
15608;SDS011;64278;45.642;13.756;2023-03-14T09:47:54;3.25;;;1.98;;
15608;SDS011;64278;45.642;13.756;2023-03-14T09:50:21;2.88;;;1.95;;
15608;SDS011;64278;45.642;13.756;2023-03-14T09:52:50;2.83;;;2.05;;
15608;SDS011;64278;45.642;13.756;2023-03-14T09:55:21;4.72;;;1.73;;
15608;SDS011;64278;45.642;13.756;2023-03-14T09:57:48;5.20;;;2.03;;
15608;SDS011;64278;45.642;13.756;2023-03-14T10:00:17;3.22;;;2.53;;
15608;SDS011;64278;45.642;13.756;2023-03-14T10:02:56;2.78;;;2.15;;
15608;SDS011;64278;45.642;13.756;2023-03-14T10:05:42;3.72;;;2.35;;
15608;SDS011;64278;45.642;13.756;2023-03-14T10:08:10;5.53;;;2.50;;
15608;SDS011;64278;45.642;13.756;2023-03-14T10:10:37;4.22;;;2.58;;
15608;SDS011;64278;45.642;13.756;2023-03-14T10:15:46;5.18;;;2.25;;
15608;SDS011;64278;45.642;13.756;2023-03-14T10:18:25;3.70;;;1.83;;
15608;SDS011;64278;45.642;13.756;2023-03-14T10:21:16;4.32;;;2.10;;
15608;SDS011;64278;45.642;13.756;2023-03-14T10:23:43;2.95;;;2.20;;
15608;SDS011;64278;45.642;13.756;2023-03-14T10:26:16;2.13;;;1.77;;
15608;SDS011;64278;45.642;13.756;2023-03-14T10:28:51;3.00;;;2.28;;
15608;SDS011;64278;45.642;13.756;2023-03-14T10:31:18;3.22;;;1.73;;
15608;SDS011;64278;45.642;13.756;2023-03-14T10:34:00;4.22;;;2.33;;
15608;SDS011;64278;45.642;13.756;2023-03-14T10:36:30;3.20;;;1.70;;
15608;SDS011;64278;45.642;13.756;2023-03-14T10:39:22;3.15;;;1.63;;
15608;SDS011;64278;45.642;13.756;2023-03-14T10:42:29;3.08;;;1.73;;
15608;SDS011;64278;45.642;13.756;2023-03-14T10:45:15;1.92;;;1.35;;
15608;SDS011;64278;45.642;13.756;2023-03-14T10:47:53;2.10;;;1.70;;
15608;SDS011;64278;45.642;13.756;2023-03-14T10:50:23;2.85;;;1.42;;
15608;SDS011;64278;45.642;13.756;2023-03-14T10:52:54;5.63;;;2.25;;
15608;SDS011;64278;45.642;13.756;2023-03-14T10:55:20;5.28;;;1.92;;
15608;SDS011;64278;45.642;13.756;2023-03-14T10:57:48;2.92;;;1.98;;
15608;SDS011;64278;45.642;13.756;2023-03-14T11:05:53;3.15;;;1.70;;
15608;SDS011;64278;45.642;13.756;2023-03-14T11:08:07;2.65;;;1.60;;
15608;SDS011;64278;45.642;13.756;2023-03-14T11:10:39;4.55;;;2.03;;
15608;SDS011;64278;45.642;13.756;2023-03-14T11:13:27;2.75;;;1.55;;
15608;SDS011;64278;45.642;13.756;2023-03-14T11:26:53;2.55;;;1.77;;
15608;SDS011;64278;45.642;13.756;2023-03-14T11:32:19;1.92;;;1.40;;
15608;SDS011;64278;45.642;13.756;2023-03-14T11:35:03;2.50;;;1.80;;
15608;SDS011;64278;45.642;13.756;2023-03-14T11:37:42;2.70;;;1.58;;
15608;SDS011;64278;45.642;13.756;2023-03-14T11:40:18;3.58;;;1.70;;
15608;SDS011;64278;45.642;13.756;2023-03-14T11:42:48;3.88;;;1.80;;
15608;SDS011;64278;45.642;13.756;2023-03-14T11:45:25;2.92;;;1.77;;
15608;SDS011;64278;45.642;13.756;2023-03-14T11:48:03;2.67;;;1.60;;
15608;SDS011;64278;45.642;13.756;2023-03-14T11:50:38;1.85;;;1.60;;
15608;SDS011;64278;45.642;13.756;2023-03-14T11:53:48;2.42;;;1.70;;
15608;SDS011;64278;45.642;13.756;2023-03-14T11:56:06;2.03;;;1.50;;
15608;SDS011;64278;45.642;13.756;2023-03-14T11:59:12;2.65;;;1.67;;
15608;SDS011;64278;45.642;13.756;2023-03-14T12:01:45;1.95;;;1.33;;
15608;SDS011;64278;45.642;13.756;2023-03-14T12:07:21;3.22;;;1.63;;
15608;SDS011;64278;45.642;13.756;2023-03-14T12:09:54;1.95;;;1.42;;
15608;SDS011;64278;45.642;13.756;2023-03-14T12:12:21;2.95;;;1.40;;
15608;SDS011;64278;45.642;13.756;2023-03-14T12:14:56;1.88;;;1.30;;
15608;SDS011;64278;45.642;13.756;2023-03-14T12:17:36;1.50;;;1.38;;
15608;SDS011;64278;45.642;13.756;2023-03-14T12:20:25;2.15;;;1.45;;
15608;SDS011;64278;45.642;13.756;2023-03-14T12:22:54;2.53;;;1.65;;
15608;SDS011;64278;45.642;13.756;2023-03-14T12:25:24;1.92;;;1.55;;
15608;SDS011;64278;45.642;13.756;2023-03-14T12:30:25;3.35;;;1.58;;
15608;SDS011;64278;45.642;13.756;2023-03-14T12:35:44;2.70;;;1.60;;
15608;SDS011;64278;45.642;13.756;2023-03-14T12:38:14;1.50;;;1.40;;
15608;SDS011;64278;45.642;13.756;2023-03-14T12:41:06;2.42;;;1.45;;
15608;SDS011;64278;45.642;13.756;2023-03-14T12:43:41;2.47;;;1.70;;
15608;SDS011;64278;45.642;13.756;2023-03-14T12:46:20;2.90;;;1.83;;
15608;SDS011;64278;45.642;13.756;2023-03-14T12:48:55;2.28;;;1.95;;
15608;SDS011;64278;45.642;13.756;2023-03-14T12:51:53;3.53;;;1.75;;
15608;SDS011;64278;45.642;13.756;2023-03-14T12:59:55;2.05;;;1.75;;
15608;SDS011;64278;45.642;13.756;2023-03-14T13:02:24;2.28;;;1.73;;
15608;SDS011;64278;45.642;13.756;2023-03-14T13:05:10;2.33;;;1.65;;
15608;SDS011;64278;45.642;13.756;2023-03-14T13:12:55;3.10;;;1.95;;
15608;SDS011;64278;45.642;13.756;2023-03-14T13:17:56;3.58;;;2.15;;
15608;SDS011;64278;45.642;13.756;2023-03-14T13:20:34;3.08;;;1.75;;
15608;SDS011;64278;45.642;13.756;2023-03-14T13:23:02;3.05;;;1.98;;
15608;SDS011;64278;45.642;13.756;2023-03-14T13:25:29;3.40;;;1.98;;
15608;SDS011;64278;45.642;13.756;2023-03-14T13:27:57;2.78;;;1.80;;
15608;SDS011;64278;45.642;13.756;2023-03-14T13:30:28;3.38;;;2.22;;
15608;SDS011;64278;45.642;13.756;2023-03-14T13:33:03;2.70;;;1.80;;
15608;SDS011;64278;45.642;13.756;2023-03-14T13:35:29;4.18;;;1.80;;
15608;SDS011;64278;45.642;13.756;2023-03-14T13:38:19;2.30;;;1.70;;
15608;SDS011;64278;45.642;13.756;2023-03-14T13:40:46;2.00;;;1.65;;
15608;SDS011;64278;45.642;13.756;2023-03-14T13:46:03;2.78;;;1.92;;
15608;SDS011;64278;45.642;13.756;2023-03-14T13:48:44;2.65;;;1.80;;
15608;SDS011;64278;45.642;13.756;2023-03-14T13:51:19;4.22;;;1.88;;
15608;SDS011;64278;45.642;13.756;2023-03-14T13:53:50;3.15;;;1.92;;
15608;SDS011;64278;45.642;13.756;2023-03-14T13:56:21;2.78;;;1.92;;
15608;SDS011;64278;45.642;13.756;2023-03-14T13:58:48;2.13;;;1.90;;
15608;SDS011;64278;45.642;13.756;2023-03-14T14:01:25;2.65;;;2.03;;
15608;SDS011;64278;45.642;13.756;2023-03-14T14:04:02;3.45;;;2.35;;
15608;SDS011;64278;45.642;13.756;2023-03-14T14:06:44;3.25;;;2.20;;
15608;SDS011;64278;45.642;13.756;2023-03-14T14:09:15;2.85;;;1.80;;
15608;SDS011;64278;45.642;13.756;2023-03-14T14:17:10;4.50;;;2.00;;
15608;SDS011;64278;45.642;13.756;2023-03-14T14:19:40;3.95;;;2.40;;
15608;SDS011;64278;45.642;13.756;2023-03-14T14:22:10;3.83;;;2.45;;
15608;SDS011;64278;45.642;13.756;2023-03-14T14:24:36;2.85;;;2.17;;
15608;SDS011;64278;45.642;13.756;2023-03-14T14:27:13;2.75;;;2.00;;
15608;SDS011;64278;45.642;13.756;2023-03-14T14:29:56;2.28;;;2.05;;
15608;SDS011;64278;45.642;13.756;2023-03-14T14:32:34;2.33;;;1.95;;
15608;SDS011;64278;45.642;13.756;2023-03-14T14:35:05;4.00;;;2.60;;
15608;SDS011;64278;45.642;13.756;2023-03-14T14:37:42;2.67;;;2.17;;
15608;SDS011;64278;45.642;13.756;2023-03-14T14:40:25;3.17;;;2.25;;
15608;SDS011;64278;45.642;13.756;2023-03-14T14:42:55;4.55;;;2.17;;
15608;SDS011;64278;45.642;13.756;2023-03-14T14:45:28;2.78;;;2.05;;
15608;SDS011;64278;45.642;13.756;2023-03-14T14:47:55;2.20;;;1.88;;
15608;SDS011;64278;45.642;13.756;2023-03-14T14:50:34;5.72;;;2.40;;
15608;SDS011;64278;45.642;13.756;2023-03-14T14:55:49;3.22;;;2.20;;
15608;SDS011;64278;45.642;13.756;2023-03-14T15:00:53;3.05;;;2.05;;
15608;SDS011;64278;45.642;13.756;2023-03-14T15:03:28;2.53;;;2.00;;
15608;SDS011;64278;45.642;13.756;2023-03-14T15:05:55;3.83;;;2.22;;
15608;SDS011;64278;45.642;13.756;2023-03-14T15:08:21;3.33;;;2.20;;
15608;SDS011;64278;45.642;13.756;2023-03-14T15:10:47;2.53;;;1.80;;
15608;SDS011;64278;45.642;13.756;2023-03-14T15:13:12;3.20;;;2.30;;
15608;SDS011;64278;45.642;13.756;2023-03-14T15:15:38;4.20;;;2.55;;
15608;SDS011;64278;45.642;13.756;2023-03-14T15:18:10;2.95;;;2.20;;
15608;SDS011;64278;45.642;13.756;2023-03-14T15:20:39;4.50;;;2.70;;
15608;SDS011;64278;45.642;13.756;2023-03-14T15:23:09;2.70;;;1.90;;
15608;SDS011;64278;45.642;13.756;2023-03-14T15:25:36;3.13;;;2.30;;
15608;SDS011;64278;45.642;13.756;2023-03-14T15:28:03;2.22;;;1.77;;
15608;SDS011;64278;45.642;13.756;2023-03-14T15:30:30;3.92;;;2.53;;
15608;SDS011;64278;45.642;13.756;2023-03-14T15:32:56;3.85;;;2.15;;
15608;SDS011;64278;45.642;13.756;2023-03-14T15:35:21;3.22;;;2.10;;
15608;SDS011;64278;45.642;13.756;2023-03-14T15:37:47;2.50;;;2.03;;
15608;SDS011;64278;45.642;13.756;2023-03-14T15:40:13;3.25;;;2.33;;
15608;SDS011;64278;45.642;13.756;2023-03-14T15:42:40;4.10;;;3.30;;
15608;SDS011;64278;45.642;13.756;2023-03-14T15:45:06;7.13;;;6.15;;
15608;SDS011;64278;45.642;13.756;2023-03-14T15:47:32;9.90;;;7.18;;
15608;SDS011;64278;45.642;13.756;2023-03-14T15:49:58;13.10;;;11.07;;